Time;durP1;ratioP1;P1;durP2;ratioP2;P2;SDS_P1;SDS_P2;PMS_P1;PMS_P2;Temp;Humidity;BMP_temperature;BMP_pressure;BME280_temperature;BME280_humidity;BME280_pressure;Samples;Min_cycle;Max_cycle;Signal;HPM_P1;HPM_P2
2023/02/15 00:00:15;;;;;;;;;;;1.90;99.90;;;;;;5052285;28;20016;-70
2023/02/15 00:02:42;;;;;;;;;;;1.80;99.90;;;;;;5052965;28;19925;-70
2023/02/15 00:05:10;;;;;;;;;;;1.80;99.90;;;;;;5051272;28;19924;-70
2023/02/15 00:07:37;;;;;;;;;;;1.90;99.90;;;;;;5051669;28;20344;-69
2023/02/15 00:10:04;;;;;;;;;;;1.90;99.90;;;;;;5050590;28;20564;-69
2023/02/15 00:12:31;;;;;;;;;;;2.00;99.90;;;;;;5049220;28;20614;-69
2023/02/15 00:14:57;;;;;;;;;;;2.10;99.90;;;;;;5051515;28;20269;-69
2023/02/15 00:17:24;;;;;;;;;;;2.20;99.90;;;;;;5052939;28;20374;-69
2023/02/15 00:19:51;;;;;;;;;;;2.10;99.90;;;;;;5041707;28;20012;-69
2023/02/15 00:22:19;;;;;;;;;;;2.10;99.90;;;;;;5051824;28;20027;-69
2023/02/15 00:24:46;;;;;;;;;;;2.00;99.90;;;;;;5053550;28;19925;-69
2023/02/15 00:27:13;;;;;;;;;;;1.90;99.90;;;;;;5051367;28;20491;-70
2023/02/15 00:29:39;;;;;;;;;;;1.80;99.90;;;;;;5052545;28;20016;-69
2023/02/15 00:32:06;;;;;;;;;;;1.80;99.90;;;;;;5051989;28;19925;-69
2023/02/15 00:34:33;;;;;;;;;;;1.80;99.90;;;;;;5033970;28;19925;-69
2023/02/15 00:37:00;;;;;;;;;;;1.80;99.90;;;;;;5052998;28;19931;-68
2023/02/15 00:39:28;;;;;;;;;;;1.70;99.90;;;;;;5053147;28;20000;-69
2023/02/15 00:41:55;;;;;;;;;;;1.50;99.90;;;;;;5050927;28;19925;-68
2023/02/15 00:44:22;;;;;;;;;;;1.50;99.90;;;;;;5053103;28;19947;-69
2023/02/15 00:46:48;;;;;;;;;;;1.40;99.90;;;;;;5051235;28;19947;-68
2023/02/15 00:49:15;;;;;;;;;;;1.40;99.90;;;;;;5052630;28;19931;-69
2023/02/15 00:51:42;;;;;;;;;;;1.40;99.90;;;;;;5051442;28;19925;-69
2023/02/15 00:54:08;;;;;;;;;;;1.50;99.90;;;;;;5052308;28;20020;-70
2023/02/15 00:56:36;;;;;;;;;;;1.40;99.90;;;;;;5049823;28;20024;-70
2023/02/15 00:59:03;;;;;;;;;;;1.50;99.90;;;;;;5050936;28;19931;-70
2023/02/15 01:01:30;;;;;;;;;;;1.50;99.90;;;;;;5049230;28;20019;-70
2023/02/15 01:03:56;;;;;;;;;;;1.50;99.90;;;;;;5050670;28;20380;-70
2023/02/15 01:06:23;;;;;;;;;;;1.40;99.90;;;;;;5051552;28;20280;-70
2023/02/15 01:08:49;;;;;;;;;;;1.40;99.90;;;;;;5051703;28;20391;-69
2023/02/15 01:11:21;;;;;;;;;;;1.30;99.90;;;;;;5049071;28;20470;-70
2023/02/15 01:13:50;;;;;;;;;;;1.40;99.90;;;;;;5051308;28;20021;-70
2023/02/15 01:16:17;;;;;;;;;;;1.40;99.90;;;;;;5050300;28;19932;-70
2023/02/15 01:18:44;;;;;;;;;;;1.40;99.90;;;;;;5050996;28;19925;-70
2023/02/15 01:21:13;;;;;;;;;;;1.30;99.90;;;;;;5050160;28;20011;-70
2023/02/15 01:23:40;;;;;;;;;;;1.30;99.90;;;;;;5051049;28;20031;-70
2023/02/15 01:26:07;;;;;;;;;;;1.30;99.90;;;;;;5049232;28;19924;-70
2023/02/15 01:28:34;;;;;;;;;;;1.30;99.90;;;;;;5047253;28;20402;-70
2023/02/15 01:31:06;;;;;;;;;;;1.30;99.90;;;;;;5050832;28;19925;-69
2023/02/15 01:33:32;;;;;;;;;;;1.30;99.90;;;;;;5051680;28;19931;-69
2023/02/15 01:35:59;;;;;;;;;;;1.30;99.90;;;;;;5049593;28;19925;-69
2023/02/15 01:38:26;;;;;;;;;;;1.30;99.90;;;;;;5052366;28;19925;-69
2023/02/15 01:40:53;;;;;;;;;;;1.20;99.90;;;;;;5049383;28;20016;-70
2023/02/15 01:43:20;;;;;;;;;;;1.30;99.90;;;;;;5051099;28;20011;-70
2023/02/15 01:45:47;;;;;;;;;;;1.30;99.90;;;;;;5049838;28;19931;-70
2023/02/15 01:48:20;;;;;;;;;;;1.20;99.90;;;;;;5050958;28;19925;-70
2023/02/15 01:50:48;;;;;;;;;;;1.10;99.90;;;;;;5050505;28;19928;-70
2023/02/15 01:53:19;;;;;;;;;;;1.10;99.90;;;;;;5046815;28;19929;-70
2023/02/15 01:55:47;;;;;;;;;;;1.10;99.90;;;;;;5043455;28;19925;-70
2023/02/15 01:58:14;;;;;;;;;;;1.00;99.90;;;;;;5050911;28;19925;-70
2023/02/15 02:00:41;;;;;;;;;;;1.10;99.90;;;;;;5049600;28;19925;-71
2023/02/15 02:03:07;;;;;;;;;;;1.00;99.90;;;;;;5051037;28;19924;-70
2023/02/15 02:05:35;;;;;;;;;;;1.10;99.90;;;;;;5050035;28;20003;-69
2023/02/15 02:08:02;;;;;;;;;;;0.90;99.90;;;;;;5050454;28;19931;-71
2023/02/15 02:10:29;;;;;;;;;;;0.80;99.90;;;;;;5048180;28;20398;-70
2023/02/15 02:12:58;;;;;;;;;;;0.80;99.90;;;;;;5050759;28;19929;-70
2023/02/15 02:15:28;;;;;;;;;;;1.00;99.90;;;;;;5050150;28;20281;-69
2023/02/15 02:18:02;;;;;;;;;;;1.10;99.90;;;;;;5051199;28;19924;-69
2023/02/15 02:20:49;;;;;;;;;;;1.20;99.90;;;;;;5046877;28;19931;-71
2023/02/15 02:23:34;;;;;;;;;;;1.20;99.90;;;;;;5051694;28;20019;-70
2023/02/15 02:26:19;;;;;;;;;;;1.30;99.90;;;;;;5047781;28;19925;-71
2023/02/15 02:29:05;;;;;;;;;;;1.30;99.90;;;;;;5049700;28;19947;-70
2023/02/15 02:31:39;;;;;;;;;;;1.20;99.90;;;;;;5049543;28;20591;-70
2023/02/15 02:34:12;;;;;;;;;;;1.20;99.90;;;;;;5048256;28;19983;-69
2023/02/15 02:36:42;;;;;;;;;;;1.30;99.90;;;;;;5050484;28;20402;-69
2023/02/15 02:39:13;;;;;;;;;;;1.20;99.90;;;;;;5050665;28;19925;-69
2023/02/15 02:41:44;;;;;;;;;;;1.10;99.90;;;;;;5048560;28;19932;-69
2023/02/15 02:44:13;;;;;;;;;;;1.00;99.90;;;;;;5050672;28;20000;-69
2023/02/15 02:46:45;;;;;;;;;;;0.90;99.90;;;;;;5049868;28;19925;-69
2023/02/15 02:49:13;;;;;;;;;;;0.90;99.90;;;;;;5046338;28;19925;-69
2023/02/15 02:51:40;;;;;;;;;;;0.80;99.90;;;;;;5047556;28;19925;-69
2023/02/15 02:54:07;;;;;;;;;;;0.80;99.90;;;;;;5051329;28;20003;-69
2023/02/15 02:56:37;;;;;;;;;;;0.70;99.90;;;;;;5047956;28;19932;-69
2023/02/15 02:59:07;;;;;;;;;;;0.70;99.90;;;;;;5053532;28;19925;-69
2023/02/15 03:01:36;;;;;;;;;;;0.60;99.90;;;;;;5054080;28;19924;-69
2023/02/15 03:04:04;;;;;;;;;;;0.50;99.90;;;;;;5054515;28;19925;-69
2023/02/15 03:06:34;;;;;;;;;;;0.50;99.90;;;;;;5054476;28;19925;-69
2023/02/15 03:09:04;;;;;;;;;;;0.40;99.90;;;;;;5054350;28;19925;-69
2023/02/15 03:11:30;;;;;;;;;;;0.40;99.90;;;;;;5051297;28;19931;-69
2023/02/15 03:13:57;;;;;;;;;;;0.40;99.90;;;;;;5053934;28;19924;-69
2023/02/15 03:16:27;;;;;;;;;;;0.30;99.90;;;;;;5052100;28;19925;-69
2023/02/15 03:18:57;;;;;;;;;;;0.20;99.90;;;;;;5051847;28;19932;-69
2023/02/15 03:21:28;;;;;;;;;;;0.30;99.90;;;;;;5053123;28;19924;-69
2023/02/15 03:23:58;;;;;;;;;;;0.30;99.90;;;;;;5052579;28;19929;-70
2023/02/15 03:26:25;;;;;;;;;;;0.40;99.90;;;;;;5050117;28;20031;-70
2023/02/15 03:28:54;;;;;;;;;;;0.40;99.90;;;;;;5054237;28;19960;-69
2023/02/15 03:31:21;;;;;;;;;;;0.40;99.90;;;;;;5040049;28;19925;-69
2023/02/15 03:33:50;;;;;;;;;;;0.40;99.90;;;;;;5053376;28;20027;-69
2023/02/15 03:36:19;;;;;;;;;;;0.30;99.90;;;;;;5052808;28;20016;-70
2023/02/15 03:38:51;;;;;;;;;;;0.20;99.90;;;;;;5052849;28;19931;-69
2023/02/15 03:41:20;;;;;;;;;;;0.20;99.90;;;;;;5050567;28;20288;-69
2023/02/15 03:43:49;;;;;;;;;;;0.10;99.90;;;;;;5053506;28;19931;-68
2023/02/15 03:46:18;;;;;;;;;;;0.10;99.90;;;;;;5052748;28;19925;-69
2023/02/15 03:48:47;;;;;;;;;;;0.10;99.90;;;;;;5053882;28;19939;-68
2023/02/15 03:51:34;;;;;;;;;;;0.00;99.90;;;;;;5052097;28;20501;-69
2023/02/15 03:54:02;;;;;;;;;;;0.00;99.90;;;;;;5047691;28;20340;-68
2023/02/15 03:56:31;;;;;;;;;;;-0.10;99.90;;;;;;5051081;28;19924;-68
2023/02/15 04:01:58;;;;;;;;;;;0.00;99.90;;;;;;5053456;28;19932;-69
2023/02/15 04:04:26;;;;;;;;;;;0.00;99.90;;;;;;5053605;28;19971;-69
2023/02/15 04:06:52;;;;;;;;;;;0.10;99.90;;;;;;5052279;28;19931;-69
2023/02/15 04:12:05;;;;;;;;;;;0.20;99.90;;;;;;5046630;28;19931;-68
2023/02/15 04:17:15;;;;;;;;;;;0.30;99.90;;;;;;5052020;28;19932;-69
2023/02/15 04:25:11;;;;;;;;;;;0.40;99.90;;;;;;5051684;28;20010;-68
2023/02/15 04:27:39;;;;;;;;;;;0.50;99.90;;;;;;5049828;28;19925;-70
2023/02/15 04:30:07;;;;;;;;;;;0.40;99.90;;;;;;5046279;28;19925;-69
2023/02/15 04:32:33;;;;;;;;;;;0.40;99.90;;;;;;5052247;28;19925;-69
2023/02/15 04:35:00;;;;;;;;;;;0.40;99.90;;;;;;5052047;28;19925;-69
2023/02/15 04:37:27;;;;;;;;;;;0.30;99.90;;;;;;5053521;28;19939;-68
2023/02/15 04:39:53;;;;;;;;;;;0.20;99.90;;;;;;5052817;28;20024;-68
2023/02/15 04:42:20;;;;;;;;;;;0.20;99.90;;;;;;5048991;28;19964;-68
2023/02/15 04:44:48;;;;;;;;;;;0.20;99.90;;;;;;5050440;28;19999;-68
2023/02/15 04:47:15;;;;;;;;;;;0.20;99.90;;;;;;5051971;28;19924;-69
2023/02/15 04:49:41;;;;;;;;;;;0.00;99.90;;;;;;5052033;28;20016;-68
2023/02/15 04:52:08;;;;;;;;;;;-0.10;99.90;;;;;;5052130;28;19948;-68
2023/02/15 04:54:35;;;;;;;;;;;-0.10;99.90;;;;;;5050883;28;19925;-68
2023/02/15 04:57:01;;;;;;;;;;;-0.20;99.90;;;;;;5048098;28;19925;-68
2023/02/15 04:59:28;;;;;;;;;;;-0.20;99.90;;;;;;5047792;28;19925;-68
2023/02/15 05:01:56;;;;;;;;;;;-0.10;99.90;;;;;;5049348;28;20019;-68
2023/02/15 05:04:23;;;;;;;;;;;0.00;99.90;;;;;;5052717;28;19924;-69
2023/02/15 05:06:50;;;;;;;;;;;-0.10;99.90;;;;;;5050493;28;19925;-69
2023/02/15 05:09:16;;;;;;;;;;;-0.20;99.90;;;;;;5051295;28;19964;-69
2023/02/15 05:11:43;;;;;;;;;;;-0.20;99.90;;;;;;5044902;28;19925;-69
2023/02/15 05:14:10;;;;;;;;;;;-0.20;99.90;;;;;;5052472;28;19925;-68
2023/02/15 05:16:37;;;;;;;;;;;-0.20;99.90;;;;;;5049606;28;20419;-68
2023/02/15 05:19:05;;;;;;;;;;;-0.20;99.90;;;;;;5049738;28;20390;-68
2023/02/15 05:21:32;;;;;;;;;;;-0.20;99.90;;;;;;5049309;28;19924;-68
2023/02/15 05:23:58;;;;;;;;;;;-0.20;99.90;;;;;;5051983;28;19924;-68
2023/02/15 05:29:10;;;;;;;;;;;-0.30;99.90;;;;;;5048747;28;19932;-70
2023/02/15 05:31:37;;;;;;;;;;;-0.30;99.90;;;;;;5050484;28;19931;-70
2023/02/15 05:34:05;;;;;;;;;;;-0.40;99.90;;;;;;5050616;28;20295;-69
2023/02/15 05:36:32;;;;;;;;;;;-0.50;99.90;;;;;;5049229;28;19925;-69
2023/02/15 05:38:58;;;;;;;;;;;-0.40;99.90;;;;;;5051496;28;20008;-68
2023/02/15 05:41:25;;;;;;;;;;;-0.40;99.90;;;;;;5047867;28;20008;-68
2023/02/15 05:43:52;;;;;;;;;;;-0.40;99.90;;;;;;5050976;28;19925;-69
2023/02/15 05:46:18;;;;;;;;;;;-0.30;99.90;;;;;;5049870;28;19924;-69
2023/02/15 05:48:45;;;;;;;;;;;-0.30;99.90;;;;;;5051116;28;20395;-69
2023/02/15 05:51:14;;;;;;;;;;;-0.30;99.90;;;;;;5049319;28;20015;-69
2023/02/15 05:53:41;;;;;;;;;;;-0.30;99.90;;;;;;5050676;28;20020;-70
2023/02/15 05:56:09;;;;;;;;;;;-0.30;99.90;;;;;;5048746;28;20023;-70
2023/02/15 05:58:36;;;;;;;;;;;-0.30;99.90;;;;;;5049357;28;20016;-69
2023/02/15 06:01:08;;;;;;;;;;;-0.30;99.90;;;;;;5045787;28;20039;-68
2023/02/15 06:03:34;;;;;;;;;;;-0.20;99.90;;;;;;5051049;28;19925;-68
2023/02/15 06:06:03;;;;;;;;;;;-0.10;99.90;;;;;;5049473;28;20410;-68
2023/02/15 06:08:31;;;;;;;;;;;-0.10;99.90;;;;;;5049930;28;20277;-67
2023/02/15 06:10:58;;;;;;;;;;;-0.10;99.90;;;;;;5048196;28;20366;-68
2023/02/15 06:13:24;;;;;;;;;;;-0.10;99.90;;;;;;5050032;28;19925;-69
2023/02/15 06:15:51;;;;;;;;;;;-0.10;99.90;;;;;;5047638;28;20016;-69
2023/02/15 06:18:18;;;;;;;;;;;-0.20;99.90;;;;;;5041202;28;19931;-69
2023/02/15 06:20:46;;;;;;;;;;;-0.20;99.90;;;;;;5047983;28;19929;-69
2023/02/15 06:23:12;;;;;;;;;;;-0.20;99.90;;;;;;5043064;28;19929;-70
2023/02/15 06:25:40;;;;;;;;;;;-0.20;99.90;;;;;;5050131;28;20031;-69
2023/02/15 06:28:07;;;;;;;;;;;-0.20;99.90;;;;;;5048068;28;20050;-69
2023/02/15 06:30:34;;;;;;;;;;;-0.10;99.90;;;;;;5043386;28;19972;-69
2023/02/15 06:33:00;;;;;;;;;;;-0.10;99.90;;;;;;5052675;28;20355;-70
2023/02/15 06:35:27;;;;;;;;;;;-0.10;99.90;;;;;;5049298;28;20360;-69
2023/02/15 06:37:54;;;;;;;;;;;-0.10;99.90;;;;;;5052802;28;20029;-69
2023/02/15 06:40:20;;;;;;;;;;;-0.10;99.90;;;;;;5046474;28;20028;-69
2023/02/15 06:42:48;;;;;;;;;;;-0.10;99.90;;;;;;5047690;28;20015;-69
2023/02/15 06:45:15;;;;;;;;;;;-0.10;99.90;;;;;;5044684;28;20011;-68
2023/02/15 06:47:42;;;;;;;;;;;-0.10;99.90;;;;;;5047973;28;20020;-69
2023/02/15 06:50:10;;;;;;;;;;;-0.10;99.90;;;;;;5046265;28;19960;-68
2023/02/15 06:52:36;;;;;;;;;;;-0.10;99.90;;;;;;5043268;28;19928;-69
2023/02/15 06:55:03;;;;;;;;;;;-0.10;99.90;;;;;;5050961;28;19924;-70
2023/02/15 06:57:30;;;;;;;;;;;-0.10;99.90;;;;;;5046663;28;20331;-69
2023/02/15 06:59:59;;;;;;;;;;;-0.10;99.90;;;;;;5045285;28;19936;-69
2023/02/15 07:02:28;;;;;;;;;;;-0.10;99.90;;;;;;5045436;28;20139;-69
2023/02/15 07:04:55;;;;;;;;;;;-0.20;99.90;;;;;;5045794;28;19926;-69
2023/02/15 07:07:22;;;;;;;;;;;-0.30;99.90;;;;;;5047232;28;19931;-70
2023/02/15 07:09:48;;;;;;;;;;;-0.20;99.90;;;;;;5047565;28;20019;-70
2023/02/15 07:15:07;;;;;;;;;;;-0.10;99.90;;;;;;5030106;28;19933;-70
2023/02/15 07:17:34;;;;;;;;;;;0.00;99.90;;;;;;5046687;28;20003;-71
2023/02/15 07:20:01;;;;;;;;;;;0.10;99.90;;;;;;5042946;28;20056;-71
2023/02/15 07:22:28;;;;;;;;;;;0.30;99.90;;;;;;5040043;28;20363;-69
2023/02/15 07:24:55;;;;;;;;;;;0.40;99.90;;;;;;5036883;28;19944;-70
2023/02/15 07:27:22;;;;;;;;;;;0.60;99.90;;;;;;5044093;28;19933;-70
2023/02/15 07:29:48;;;;;;;;;;;0.70;99.90;;;;;;5043552;28;20379;-70
2023/02/15 07:32:16;;;;;;;;;;;0.90;99.90;;;;;;5044737;28;20007;-71
2023/02/15 07:34:43;;;;;;;;;;;1.00;99.90;;;;;;5043425;28;20016;-70
2023/02/15 07:37:10;;;;;;;;;;;1.20;99.90;;;;;;5048194;28;19925;-70
2023/02/15 07:39:36;;;;;;;;;;;1.30;99.90;;;;;;5047297;28;20295;-70
2023/02/15 07:42:03;;;;;;;;;;;1.40;99.90;;;;;;5049802;28;19972;-70
2023/02/15 07:44:30;;;;;;;;;;;1.40;99.90;;;;;;5047437;28;20023;-70
2023/02/15 07:46:56;;;;;;;;;;;1.30;99.90;;;;;;5050396;28;20031;-69
2023/02/15 07:49:24;;;;;;;;;;;1.30;99.90;;;;;;5053210;28;20349;-69
2023/02/15 07:51:51;;;;;;;;;;;1.40;99.90;;;;;;5052603;28;19924;-70
2023/02/15 07:54:18;;;;;;;;;;;1.50;99.90;;;;;;5049952;28;19979;-69
2023/02/15 07:56:44;;;;;;;;;;;1.50;99.90;;;;;;5052574;28;20303;-70
2023/02/15 07:59:11;;;;;;;;;;;1.40;99.90;;;;;;5061329;28;20494;-69
2023/02/15 08:01:38;;;;;;;;;;;1.60;99.90;;;;;;5056771;28;19925;-69
2023/02/15 08:04:06;;;;;;;;;;;1.60;99.90;;;;;;5051693;28;19925;-70
2023/02/15 08:06:36;;;;;;;;;;;1.70;99.90;;;;;;5047122;28;19924;-70
2023/02/15 08:09:04;;;;;;;;;;;1.80;99.90;;;;;;5052955;28;20012;-71
2023/02/15 08:11:36;;;;;;;;;;;2.00;99.90;;;;;;5047381;28;19938;-70
2023/02/15 08:14:04;;;;;;;;;;;2.10;99.90;;;;;;5042430;28;20367;-71
2023/02/15 08:16:31;;;;;;;;;;;2.20;99.90;;;;;;5050259;28;19925;-70
2023/02/15 08:18:59;;;;;;;;;;;2.40;99.90;;;;;;5052530;28;20348;-71
2023/02/15 08:21:26;;;;;;;;;;;2.60;99.90;;;;;;5043207;28;19924;-70
2023/02/15 08:23:54;;;;;;;;;;;3.00;99.90;;;;;;5052253;28;19925;-70
2023/02/15 08:26:21;;;;;;;;;;;3.30;99.90;;;;;;5050975;28;20542;-71
2023/02/15 08:28:48;;;;;;;;;;;4.20;99.90;;;;;;5054686;28;20346;-70
2023/02/15 08:31:15;;;;;;;;;;;5.50;99.90;;;;;;5051878;28;20403;-71
2023/02/15 08:33:43;;;;;;;;;;;6.20;99.90;;;;;;5037441;28;20758;-75
2023/02/15 08:36:10;;;;;;;;;;;7.40;99.90;;;;;;5042284;28;20552;-75
2023/02/15 08:38:37;;;;;;;;;;;8.10;99.90;;;;;;5042630;28;19925;-74
2023/02/15 08:41:12;;;;;;;;;;;8.60;99.90;;;;;;5046343;28;19970;-76
2023/02/15 08:43:39;;;;;;;;;;;8.90;99.90;;;;;;5054108;28;19939;-74
2023/02/15 08:46:06;;;;;;;;;;;9.60;99.90;;;;;;5043775;28;19937;-71
2023/02/15 08:48:32;;;;;;;;;;;10.00;99.90;;;;;;5037495;28;19935;-70
2023/02/15 08:50:59;;;;;;;;;;;10.50;99.90;;;;;;5046690;28;20047;-70
2023/02/15 08:53:26;;;;;;;;;;;11.10;99.70;;;;;;5045463;28;20371;-69
2023/02/15 08:55:56;;;;;;;;;;;11.30;95.50;;;;;;5040037;28;20380;-70
2023/02/15 08:58:24;;;;;;;;;;;11.60;95.10;;;;;;5045455;28;19925;-70
2023/02/15 09:00:51;;;;;;;;;;;11.50;94.00;;;;;;5040738;28;19940;-70
2023/02/15 09:03:17;;;;;;;;;;;11.50;93.70;;;;;;5039689;28;19933;-69
2023/02/15 09:05:46;;;;;;;;;;;11.40;93.70;;;;;;5048094;28;20399;-70
2023/02/15 09:08:13;;;;;;;;;;;11.70;93.20;;;;;;5044246;28;19932;-69
2023/02/15 09:10:39;;;;;;;;;;;11.80;92.30;;;;;;5052048;28;20402;-70
2023/02/15 09:13:06;;;;;;;;;;;12.10;91.70;;;;;;5042803;28;19964;-71
2023/02/15 09:15:34;;;;;;;;;;;12.40;90.90;;;;;;5048482;28;19979;-70
2023/02/15 09:18:05;;;;;;;;;;;12.70;90.20;;;;;;5044477;28;19931;-68
2023/02/15 09:20:32;;;;;;;;;;;12.70;87.70;;;;;;5046720;28;20403;-69
2023/02/15 09:22:59;;;;;;;;;;;12.90;86.50;;;;;;5045947;28;20064;-69
2023/02/15 09:25:26;;;;;;;;;;;13.10;85.20;;;;;;5047938;28;19924;-70
2023/02/15 09:27:53;;;;;;;;;;;13.20;83.10;;;;;;5049066;28;19931;-70
2023/02/15 09:30:20;;;;;;;;;;;12.90;80.90;;;;;;5061395;28;20007;-71
2023/02/15 09:32:49;;;;;;;;;;;12.60;82.40;;;;;;5045792;28;20006;-71
2023/02/15 09:35:15;;;;;;;;;;;12.90;83.00;;;;;;5045110;28;20007;-70
2023/02/15 09:37:42;;;;;;;;;;;12.90;81.80;;;;;;5049410;28;19960;-70
2023/02/15 09:40:09;;;;;;;;;;;12.70;81.80;;;;;;5047839;28;19951;-71
2023/02/15 09:42:48;;;;;;;;;;;12.50;82.60;;;;;;5046077;28;19929;-70
2023/02/15 09:45:23;;;;;;;;;;;11.90;83.60;;;;;;5045723;28;20379;-70
2023/02/15 09:47:59;;;;;;;;;;;11.10;85.70;;;;;;5048304;28;20591;-69
2023/02/15 09:50:28;;;;;;;;;;;10.20;90.30;;;;;;5049906;28;20020;-70
2023/02/15 09:53:01;;;;;;;;;;;9.70;93.70;;;;;;5046991;28;20003;-70
2023/02/15 09:55:35;;;;;;;;;;;9.40;95.80;;;;;;5046692;28;19924;-70
2023/02/15 09:58:08;;;;;;;;;;;9.20;97.60;;;;;;5048702;28;20240;-70
2023/02/15 10:00:41;;;;;;;;;;;9.30;98.70;;;;;;5039227;28;20328;-70
2023/02/15 10:03:25;;;;;;;;;;;9.30;99.10;;;;;;5048775;28;20003;-70
2023/02/15 10:05:58;;;;;;;;;;;9.10;98.30;;;;;;5031391;28;20395;-70
2023/02/15 10:08:49;;;;;;;;;;;9.10;98.80;;;;;;5049196;28;19924;-70
2023/02/15 10:14:09;;;;;;;;;;;9.10;98.80;;;;;;5045061;28;19931;-70
2023/02/15 10:16:38;;;;;;;;;;;9.10;99.30;;;;;;5042033;28;20295;-69
2023/02/15 10:19:08;;;;;;;;;;;9.00;98.80;;;;;;5044912;28;19929;-70
2023/02/15 10:21:41;;;;;;;;;;;9.00;98.90;;;;;;5046914;28;20376;-69
2023/02/15 10:24:17;;;;;;;;;;;9.00;99.20;;;;;;5047289;28;19931;-69
2023/02/15 10:26:45;;;;;;;;;;;9.00;99.40;;;;;;5047036;28;19925;-69
2023/02/15 10:29:17;;;;;;;;;;;9.10;99.20;;;;;;5041373;28;20291;-69
2023/02/15 10:31:48;;;;;;;;;;;9.10;98.50;;;;;;5045444;28;19932;-69
2023/02/15 10:34:17;;;;;;;;;;;9.10;99.10;;;;;;5046104;28;19931;-69
2023/02/15 10:36:58;;;;;;;;;;;9.10;98.80;;;;;;5046025;28;20012;-69
2023/02/15 10:39:29;;;;;;;;;;;9.10;99.10;;;;;;5043948;28;19925;-72
2023/02/15 10:42:03;;;;;;;;;;;9.20;98.90;;;;;;5048585;28;20019;-72
2023/02/15 10:44:41;;;;;;;;;;;9.20;98.80;;;;;;5047159;28;19964;-71
2023/02/15 10:47:18;;;;;;;;;;;9.40;99.20;;;;;;5049132;28;20376;-73
2023/02/15 10:50:01;;;;;;;;;;;9.40;98.50;;;;;;5046822;28;19924;-72
2023/02/15 10:52:35;;;;;;;;;;;9.40;98.10;;;;;;5042748;28;19961;-73
2023/02/15 10:55:08;;;;;;;;;;;9.40;98.40;;;;;;5043873;28;19949;-73
2023/02/15 10:57:39;;;;;;;;;;;9.50;98.80;;;;;;5043917;28;19925;-72
2023/02/15 11:00:11;;;;;;;;;;;9.60;98.60;;;;;;5046288;28;19925;-72
2023/02/15 11:02:46;;;;;;;;;;;9.70;98.40;;;;;;5047559;28;20295;-71
2023/02/15 11:05:24;;;;;;;;;;;9.80;98.00;;;;;;5044068;28;19982;-72
2023/02/15 11:07:52;;;;;;;;;;;9.70;98.20;;;;;;5042640;28;20403;-70
2023/02/15 11:10:23;;;;;;;;;;;9.60;98.20;;;;;;5047603;28;19978;-70
2023/02/15 11:12:50;;;;;;;;;;;9.60;98.50;;;;;;5044210;28;19929;-70
2023/02/15 11:15:20;;;;;;;;;;;9.70;98.90;;;;;;5043095;28;19928;-70
2023/02/15 11:17:50;;;;;;;;;;;9.70;98.80;;;;;;5045873;28;20604;-72
2023/02/15 11:20:19;;;;;;;;;;;9.80;99.10;;;;;;5047665;28;20360;-70
2023/02/15 11:22:48;;;;;;;;;;;9.80;99.20;;;;;;5050431;28;19931;-71
2023/02/15 11:25:18;;;;;;;;;;;9.80;99.10;;;;;;5048021;28;19983;-70
2023/02/15 11:27:47;;;;;;;;;;;9.80;98.60;;;;;;5044687;28;20019;-70
2023/02/15 11:30:15;;;;;;;;;;;9.80;98.50;;;;;;5049548;28;19979;-70
2023/02/15 11:32:44;;;;;;;;;;;9.70;98.90;;;;;;5053999;28;19986;-71
2023/02/15 11:35:18;;;;;;;;;;;9.90;98.70;;;;;;5050802;28;19947;-71
2023/02/15 11:37:47;;;;;;;;;;;9.90;98.90;;;;;;5049448;28;20016;-71
2023/02/15 11:40:19;;;;;;;;;;;10.00;98.50;;;;;;5049884;28;19925;-71
2023/02/15 11:42:49;;;;;;;;;;;10.00;97.70;;;;;;5053253;28;19924;-71
2023/02/15 11:45:20;;;;;;;;;;;10.00;98.10;;;;;;5050176;28;19929;-70
2023/02/15 11:47:47;;;;;;;;;;;10.00;98.30;;;;;;5050758;28;19929;-70
2023/02/15 11:50:15;;;;;;;;;;;10.00;98.30;;;;;;5048352;28;19994;-71
2023/02/15 11:52:41;;;;;;;;;;;10.20;98.20;;;;;;5050047;28;20500;-73
2023/02/15 11:55:12;;;;;;;;;;;10.40;98.10;;;;;;5055103;28;20522;-72
2023/02/15 11:57:41;;;;;;;;;;;10.70;97.90;;;;;;5049643;28;20015;-70
2023/02/15 12:00:13;;;;;;;;;;;10.70;97.20;;;;;;5050312;28;19929;-70
2023/02/15 12:02:43;;;;;;;;;;;10.60;96.70;;;;;;5057096;28;20374;-69
2023/02/15 12:05:12;;;;;;;;;;;10.70;97.00;;;;;;5050621;28;20385;-69
2023/02/15 12:07:43;;;;;;;;;;;10.60;97.20;;;;;;5047779;28;20015;-70
2023/02/15 12:10:18;;;;;;;;;;;10.60;97.30;;;;;;5046670;28;20473;-70
2023/02/15 12:12:44;;;;;;;;;;;10.70;96.80;;;;;;5050402;28;19968;-71
2023/02/15 12:15:13;;;;;;;;;;;10.70;97.00;;;;;;5045861;28;20053;-69
2023/02/15 12:17:49;;;;;;;;;;;10.70;96.90;;;;;;4982477;22;19926;-71
2023/02/15 12:20:26;;;;;;;;;;;10.70;97.40;;;;;;4949281;28;20380;-71
2023/02/15 12:22:55;;;;;;;;;;;10.70;97.70;;;;;;4947798;28;19961;-70
2023/02/15 12:25:23;;;;;;;;;;;10.80;97.90;;;;;;4950805;28;19931;-70
2023/02/15 12:27:50;;;;;;;;;;;10.80;97.90;;;;;;4960111;28;19927;-70
2023/02/15 12:30:20;;;;;;;;;;;11.00;98.20;;;;;;4953771;28;19933;-69
2023/02/15 12:32:49;;;;;;;;;;;11.10;97.70;;;;;;4945084;28;20381;-70
2023/02/15 12:35:19;;;;;;;;;;;11.20;97.80;;;;;;4941661;28;20064;-70
2023/02/15 12:37:53;;;;;;;;;;;11.20;97.40;;;;;;4941301;28;20033;-69
2023/02/15 12:40:21;;;;;;;;;;;11.20;97.20;;;;;;4941549;28;20439;-69
2023/02/15 12:42:48;;;;;;;;;;;11.20;97.50;;;;;;4946469;28;20005;-70
2023/02/15 12:45:24;;;;;;;;;;;11.20;97.30;;;;;;4947149;28;20403;-70
2023/02/15 12:48:08;;;;;;;;;;;11.30;96.90;;;;;;4950518;28;19926;-70
2023/02/15 12:50:35;;;;;;;;;;;11.50;97.00;;;;;;4946339;28;19935;-69
2023/02/15 12:53:07;;;;;;;;;;;11.70;96.50;;;;;;4949862;28;20579;-70
2023/02/15 12:55:34;;;;;;;;;;;11.80;96.20;;;;;;4942290;28;19935;-70
2023/02/15 12:58:08;;;;;;;;;;;12.00;96.20;;;;;;4950694;28;20015;-68
2023/02/15 13:00:36;;;;;;;;;;;12.10;96.20;;;;;;4941090;28;19986;-69
2023/02/15 13:03:03;;;;;;;;;;;12.20;95.80;;;;;;4944761;28;19934;-72
2023/02/15 13:05:32;;;;;;;;;;;12.10;95.30;;;;;;4949195;28;19936;-71
2023/02/15 13:08:00;;;;;;;;;;;12.00;95.60;;;;;;4945571;28;19931;-70
2023/02/15 13:10:29;;;;;;;;;;;12.00;95.80;;;;;;4949806;28;19934;-71
2023/02/15 13:12:57;;;;;;;;;;;11.90;96.40;;;;;;4948427;28;19926;-73
2023/02/15 13:15:29;;;;;;;;;;;11.80;95.70;;;;;;4938438;28;19927;-69
2023/02/15 13:17:58;;;;;;;;;;;11.70;95.70;;;;;;4946994;28;19926;-70
2023/02/15 13:20:27;;;;;;;;;;;11.60;96.10;;;;;;4950308;28;19926;-69
2023/02/15 13:22:54;;;;;;;;;;;11.50;96.00;;;;;;4947792;28;19930;-70
2023/02/15 13:25:22;;;;;;;;;;;11.50;96.70;;;;;;4949686;28;20322;-70
2023/02/15 13:27:51;;;;;;;;;;;11.50;97.20;;;;;;4948876;28;20412;-70
2023/02/15 13:30:22;;;;;;;;;;;11.60;97.20;;;;;;4946053;28;20439;-70
2023/02/15 13:32:50;;;;;;;;;;;11.70;97.60;;;;;;4941764;28;20037;-70
2023/02/15 13:35:18;;;;;;;;;;;11.90;97.10;;;;;;4946543;28;20653;-71
2023/02/15 13:38:00;;;;;;;;;;;12.00;96.40;;;;;;4943452;28;20346;-71
2023/02/15 13:40:31;;;;;;;;;;;12.20;96.40;;;;;;4945874;28;20021;-71
2023/02/15 13:43:03;;;;;;;;;;;12.30;95.90;;;;;;4947523;28;20021;-69
2023/02/15 13:45:34;;;;;;;;;;;12.10;95.80;;;;;;4938540;28;19941;-68
2023/02/15 13:48:05;;;;;;;;;;;12.10;96.00;;;;;;4943449;28;21063;-67
2023/02/15 13:50:50;;;;;;;;;;;12.00;96.60;;;;;;4944286;28;19934;-69
2023/02/15 13:53:25;;;;;;;;;;;12.10;96.80;;;;;;4940676;28;19933;-69
2023/02/15 13:55:53;;;;;;;;;;;12.20;96.30;;;;;;4945039;28;19934;-69
2023/02/15 13:58:32;;;;;;;;;;;12.30;96.50;;;;;;4945005;28;20082;-69
2023/02/15 14:01:03;;;;;;;;;;;12.40;96.50;;;;;;4944666;28;19935;-69
2023/02/15 14:03:45;;;;;;;;;;;12.40;96.10;;;;;;4943971;28;20025;-69
2023/02/15 14:06:24;;;;;;;;;;;12.40;96.50;;;;;;4956173;28;19930;-69
2023/02/15 14:09:00;;;;;;;;;;;12.40;94.90;;;;;;4950022;28;19926;-71
2023/02/15 14:11:34;;;;;;;;;;;12.40;95.50;;;;;;4983331;28;23054;-71
2023/02/15 14:14:16;;;;;;;;;;;12.40;95.80;;;;;;4946543;28;19927;-70
2023/02/15 14:16:49;;;;;;;;;;;12.30;95.30;;;;;;4947514;28;20000;-71
2023/02/15 14:19:19;;;;;;;;;;;12.30;95.00;;;;;;4952847;28;19937;-73
2023/02/15 14:21:53;;;;;;;;;;;12.20;95.10;;;;;;4946907;28;20009;-74
2023/02/15 14:24:28;;;;;;;;;;;12.20;95.40;;;;;;4952767;28;19934;-72
2023/02/15 14:26:59;;;;;;;;;;;12.20;95.80;;;;;;4943874;28;20374;-71
2023/02/15 14:29:33;;;;;;;;;;;12.20;96.10;;;;;;4948513;28;19934;-72
2023/02/15 14:32:02;;;;;;;;;;;12.20;95.80;;;;;;4948434;28;19934;-72
2023/02/15 14:34:33;;;;;;;;;;;12.20;96.00;;;;;;4948268;28;19933;-73
2023/02/15 14:37:02;;;;;;;;;;;12.10;96.40;;;;;;4948845;28;20378;-73
2023/02/15 14:42:22;;;;;;;;;;;12.20;97.10;;;;;;4946489;28;20484;-74
2023/02/15 14:44:50;;;;;;;;;;;12.20;97.50;;;;;;4947221;28;20378;-72
2023/02/15 14:47:20;;;;;;;;;;;12.20;97.00;;;;;;4945659;28;19931;-72
2023/02/15 14:49:46;;;;;;;;;;;12.10;97.00;;;;;;4945188;28;19926;-71
2023/02/15 14:52:14;;;;;;;;;;;12.10;97.30;;;;;;4945257;28;19989;-72
2023/02/15 14:54:54;;;;;;;;;;;12.10;97.10;;;;;;4949390;28;20304;-72
2023/02/15 14:57:23;;;;;;;;;;;12.10;96.20;;;;;;4945490;28;19934;-70
2023/02/15 14:59:55;;;;;;;;;;;12.10;96.30;;;;;;4951230;28;19927;-72